Puntzi Mountain, Canada
Current Conditions -  °F | °C
As of 8:00 AM on Monday 26 Jan 2015 (Local Time) from CYWL Reporting Station
Broken Clouds Broken Clouds  
Wind Chill: -1°   Ceiling: 5000
Heat Index:   Visibility: 15mi
Dew Point: -1°   Wind: 6mph
Humidity: 81%   Direction: 110°ESE
Pressure: 29.85"   Gusts: NA
Location:  52.12°N, 124.13°W
Report Text: CYWL 261600Z 11005KT 15SM BKN050 BKN120 02/M01 A2985 RMK SC5AC2 SLP133
Loading
Personal Weather Stations






























Interactive Weather Map New forecast layout! Learn more

10-Day Weather Forecast

Advertisements
Track Severe Weather on mobile